sensor_id;sensor_type;location;lat;lon;timestamp;temperature;humidity
25640;DHT22;13497;48.322;16.204;2023-01-15T00:02:04;6.80;99.90
25640;DHT22;13497;48.322;16.204;2023-01-15T00:04:30;6.90;99.90
25640;DHT22;13497;48.322;16.204;2023-01-15T00:06:55;6.90;99.90
25640;DHT22;13497;48.322;16.204;2023-01-15T00:09:21;6.90;99.90
25640;DHT22;13497;48.322;16.204;2023-01-15T00:11:47;6.90;99.90
25640;DHT22;13497;48.322;16.204;2023-01-15T00:14:12;6.90;99.90
25640;DHT22;13497;48.322;16.204;2023-01-15T00:16:38;6.90;99.90
25640;DHT22;13497;48.322;16.204;2023-01-15T00:19:09;6.80;99.90
25640;DHT22;13497;48.322;16.204;2023-01-15T00:21:36;6.80;99.90
25640;DHT22;13497;48.322;16.204;2023-01-15T00:24:02;6.80;99.90
25640;DHT22;13497;48.322;16.204;2023-01-15T00:26:46;6.80;99.90
25640;DHT22;13497;48.322;16.204;2023-01-15T00:29:31;6.80;99.90
25640;DHT22;13497;48.322;16.204;2023-01-15T00:31:59;6.90;99.90
25640;DHT22;13497;48.322;16.204;2023-01-15T00:34:26;6.90;99.90
25640;DHT22;13497;48.322;16.204;2023-01-15T00:36:52;7.00;99.90
25640;DHT22;13497;48.322;16.204;2023-01-15T00:39:18;7.10;99.90
25640;DHT22;13497;48.322;16.204;2023-01-15T00:41:45;7.10;99.90
25640;DHT22;13497;48.322;16.204;2023-01-15T00:44:11;7.10;99.90
25640;DHT22;13497;48.322;16.204;2023-01-15T00:46:37;7.10;99.90
25640;DHT22;13497;48.322;16.204;2023-01-15T00:49:03;7.00;99.90
25640;DHT22;13497;48.322;16.204;2023-01-15T00:51:30;6.60;99.90
25640;DHT22;13497;48.322;16.204;2023-01-15T00:53:55;6.30;99.90
25640;DHT22;13497;48.322;16.204;2023-01-15T00:56:21;6.10;99.90
25640;DHT22;13497;48.322;16.204;2023-01-15T00:58:47;5.90;99.90
25640;DHT22;13497;48.322;16.204;2023-01-15T01:01:13;5.90;99.90
25640;DHT22;13497;48.322;16.204;2023-01-15T01:03:39;5.80;99.90
25640;DHT22;13497;48.322;16.204;2023-01-15T01:06:05;5.80;99.90
25640;DHT22;13497;48.322;16.204;2023-01-15T01:08:31;5.80;99.90
25640;DHT22;13497;48.322;16.204;2023-01-15T01:11:08;5.90;99.90
25640;DHT22;13497;48.322;16.204;2023-01-15T01:13:35;5.90;99.90
25640;DHT22;13497;48.322;16.204;2023-01-15T01:16:01;6.00;99.90
25640;DHT22;13497;48.322;16.204;2023-01-15T01:18:26;6.10;99.90
25640;DHT22;13497;48.322;16.204;2023-01-15T01:20:52;6.20;99.90
25640;DHT22;13497;48.322;16.204;2023-01-15T01:23:19;6.30;99.90
25640;DHT22;13497;48.322;16.204;2023-01-15T01:25:45;6.20;99.90
25640;DHT22;13497;48.322;16.204;2023-01-15T01:28:10;6.00;99.90
25640;DHT22;13497;48.322;16.204;2023-01-15T01:30:39;6.10;99.90
25640;DHT22;13497;48.322;16.204;2023-01-15T01:33:05;6.10;99.90
25640;DHT22;13497;48.322;16.204;2023-01-15T01:35:31;6.10;99.90
25640;DHT22;13497;48.322;16.204;2023-01-15T01:37:57;6.00;99.90
25640;DHT22;13497;48.322;16.204;2023-01-15T01:40:22;6.00;99.90
25640;DHT22;13497;48.322;16.204;2023-01-15T01:42:48;6.00;99.90
25640;DHT22;13497;48.322;16.204;2023-01-15T01:45:30;6.00;99.90
25640;DHT22;13497;48.322;16.204;2023-01-15T01:48:01;5.90;99.90
25640;DHT22;13497;48.322;16.204;2023-01-15T01:50:31;5.80;99.90
25640;DHT22;13497;48.322;16.204;2023-01-15T01:53:07;5.70;99.90
25640;DHT22;13497;48.322;16.204;2023-01-15T01:55:35;5.70;99.90
25640;DHT22;13497;48.322;16.204;2023-01-15T01:58:02;5.70;99.90
25640;DHT22;13497;48.322;16.204;2023-01-15T02:00:30;5.60;99.90
25640;DHT22;13497;48.322;16.204;2023-01-15T02:02:58;5.50;99.90
25640;DHT22;13497;48.322;16.204;2023-01-15T02:05:30;5.40;99.90
25640;DHT22;13497;48.322;16.204;2023-01-15T02:07:56;5.40;99.90
25640;DHT22;13497;48.322;16.204;2023-01-15T02:10:22;5.50;99.90
25640;DHT22;13497;48.322;16.204;2023-01-15T02:13:01;5.60;99.90
25640;DHT22;13497;48.322;16.204;2023-01-15T02:15:33;5.70;99.90
25640;DHT22;13497;48.322;16.204;2023-01-15T02:18:11;5.80;99.90
25640;DHT22;13497;48.322;16.204;2023-01-15T02:20:47;5.80;99.90
25640;DHT22;13497;48.322;16.204;2023-01-15T02:23:47;5.80;99.90
25640;DHT22;13497;48.322;16.204;2023-01-15T02:28:56;5.70;99.90
25640;DHT22;13497;48.322;16.204;2023-01-15T02:31:28;5.70;99.90
25640;DHT22;13497;48.322;16.204;2023-01-15T02:33:58;5.80;99.90
25640;DHT22;13497;48.322;16.204;2023-01-15T02:36:30;5.80;99.90
25640;DHT22;13497;48.322;16.204;2023-01-15T02:39:01;5.80;99.90
25640;DHT22;13497;48.322;16.204;2023-01-15T02:41:32;5.80;99.90
25640;DHT22;13497;48.322;16.204;2023-01-15T02:44:00;5.80;99.90
25640;DHT22;13497;48.322;16.204;2023-01-15T02:46:30;5.90;99.90
25640;DHT22;13497;48.322;16.204;2023-01-15T02:48:57;5.90;99.90
25640;DHT22;13497;48.322;16.204;2023-01-15T02:51:27;6.00;99.90
25640;DHT22;13497;48.322;16.204;2023-01-15T02:53:57;6.00;99.90
25640;DHT22;13497;48.322;16.204;2023-01-15T02:56:27;6.10;99.90
25640;DHT22;13497;48.322;16.204;2023-01-15T02:58:58;6.10;99.90
25640;DHT22;13497;48.322;16.204;2023-01-15T03:01:29;6.10;99.90
25640;DHT22;13497;48.322;16.204;2023-01-15T03:04:06;6.10;99.90
25640;DHT22;13497;48.322;16.204;2023-01-15T03:06:42;6.00;99.90
25640;DHT22;13497;48.322;16.204;2023-01-15T03:09:09;6.10;99.90
25640;DHT22;13497;48.322;16.204;2023-01-15T03:11:40;6.00;99.90
25640;DHT22;13497;48.322;16.204;2023-01-15T03:14:25;6.10;99.90
25640;DHT22;13497;48.322;16.204;2023-01-15T03:16:57;6.20;99.90
25640;DHT22;13497;48.322;16.204;2023-01-15T03:24:42;6.50;99.90
25640;DHT22;13497;48.322;16.204;2023-01-15T03:27:10;6.70;99.90
25640;DHT22;13497;48.322;16.204;2023-01-15T03:29:39;6.70;99.90
25640;DHT22;13497;48.322;16.204;2023-01-15T03:32:08;6.80;99.90
25640;DHT22;13497;48.322;16.204;2023-01-15T03:34:48;6.80;99.90
25640;DHT22;13497;48.322;16.204;2023-01-15T03:37:15;6.80;99.90
25640;DHT22;13497;48.322;16.204;2023-01-15T03:39:41;6.80;99.90
25640;DHT22;13497;48.322;16.204;2023-01-15T03:42:15;6.90;99.90
25640;DHT22;13497;48.322;16.204;2023-01-15T03:45:04;6.90;99.90
25640;DHT22;13497;48.322;16.204;2023-01-15T03:48:08;6.90;99.90
25640;DHT22;13497;48.322;16.204;2023-01-15T03:50:46;6.80;99.90
25640;DHT22;13497;48.322;16.204;2023-01-15T03:55:54;6.70;99.90
25640;DHT22;13497;48.322;16.204;2023-01-15T03:58:41;6.60;99.90
25640;DHT22;13497;48.322;16.204;2023-01-15T04:01:10;6.60;99.90
25640;DHT22;13497;48.322;16.204;2023-01-15T04:03:38;6.50;99.90
25640;DHT22;13497;48.322;16.204;2023-01-15T04:06:04;6.40;99.90
25640;DHT22;13497;48.322;16.204;2023-01-15T04:08:35;6.40;99.90
25640;DHT22;13497;48.322;16.204;2023-01-15T04:11:02;6.30;99.90
25640;DHT22;13497;48.322;16.204;2023-01-15T04:13:28;6.20;99.90
25640;DHT22;13497;48.322;16.204;2023-01-15T04:15:54;6.20;99.90
25640;DHT22;13497;48.322;16.204;2023-01-15T04:18:20;6.20;99.90
25640;DHT22;13497;48.322;16.204;2023-01-15T04:20:47;6.10;99.90
25640;DHT22;13497;48.322;16.204;2023-01-15T04:23:13;6.20;99.90
25640;DHT22;13497;48.322;16.204;2023-01-15T04:25:39;6.20;99.90
25640;DHT22;13497;48.322;16.204;2023-01-15T04:28:06;6.20;99.90
25640;DHT22;13497;48.322;16.204;2023-01-15T04:30:32;6.30;99.90
25640;DHT22;13497;48.322;16.204;2023-01-15T04:32:58;6.30;99.90
25640;DHT22;13497;48.322;16.204;2023-01-15T04:35:24;6.40;99.90
25640;DHT22;13497;48.322;16.204;2023-01-15T04:37:54;6.30;99.90
25640;DHT22;13497;48.322;16.204;2023-01-15T04:40:20;6.30;99.90
25640;DHT22;13497;48.322;16.204;2023-01-15T04:43:04;6.30;99.90
25640;DHT22;13497;48.322;16.204;2023-01-15T04:45:48;6.30;99.90
25640;DHT22;13497;48.322;16.204;2023-01-15T04:48:14;6.30;99.90
25640;DHT22;13497;48.322;16.204;2023-01-15T04:50:39;6.40;99.90
25640;DHT22;13497;48.322;16.204;2023-01-15T04:53:05;6.40;99.90
25640;DHT22;13497;48.322;16.204;2023-01-15T04:55:31;6.30;99.90
25640;DHT22;13497;48.322;16.204;2023-01-15T04:57:57;6.20;99.90
25640;DHT22;13497;48.322;16.204;2023-01-15T05:00:22;6.20;99.90
25640;DHT22;13497;48.322;16.204;2023-01-15T05:02:48;6.20;99.90
25640;DHT22;13497;48.322;16.204;2023-01-15T05:05:14;6.20;99.90
25640;DHT22;13497;48.322;16.204;2023-01-15T05:07:40;6.30;99.90
25640;DHT22;13497;48.322;16.204;2023-01-15T05:10:06;6.30;99.90
25640;DHT22;13497;48.322;16.204;2023-01-15T05:12:32;6.40;99.90
25640;DHT22;13497;48.322;16.204;2023-01-15T05:14:58;6.30;99.90
25640;DHT22;13497;48.322;16.204;2023-01-15T05:17:23;6.30;99.90
25640;DHT22;13497;48.322;16.204;2023-01-15T05:19:49;6.30;99.90
25640;DHT22;13497;48.322;16.204;2023-01-15T05:22:14;6.20;99.90
25640;DHT22;13497;48.322;16.204;2023-01-15T05:24:40;6.30;99.90
25640;DHT22;13497;48.322;16.204;2023-01-15T05:27:06;6.20;99.90
25640;DHT22;13497;48.322;16.204;2023-01-15T05:29:31;6.20;99.90
25640;DHT22;13497;48.322;16.204;2023-01-15T05:31:57;6.30;99.90
25640;DHT22;13497;48.322;16.204;2023-01-15T05:34:22;6.40;99.90
25640;DHT22;13497;48.322;16.204;2023-01-15T05:36:48;6.40;99.90
25640;DHT22;13497;48.322;16.204;2023-01-15T05:39:14;6.40;99.90
25640;DHT22;13497;48.322;16.204;2023-01-15T05:41:40;6.50;99.90
25640;DHT22;13497;48.322;16.204;2023-01-15T05:44:33;6.50;99.90
25640;DHT22;13497;48.322;16.204;2023-01-15T05:47:01;6.50;99.90
25640;DHT22;13497;48.322;16.204;2023-01-15T05:49:30;6.50;99.90
25640;DHT22;13497;48.322;16.204;2023-01-15T05:51:56;6.50;99.90
25640;DHT22;13497;48.322;16.204;2023-01-15T05:54:25;6.50;99.90
25640;DHT22;13497;48.322;16.204;2023-01-15T05:56:51;6.70;99.90
25640;DHT22;13497;48.322;16.204;2023-01-15T05:59:19;6.80;99.90
25640;DHT22;13497;48.322;16.204;2023-01-15T06:01:46;6.90;99.90
25640;DHT22;13497;48.322;16.204;2023-01-15T06:04:12;6.90;99.90
25640;DHT22;13497;48.322;16.204;2023-01-15T06:06:42;6.90;99.90
25640;DHT22;13497;48.322;16.204;2023-01-15T06:09:09;6.90;99.90
25640;DHT22;13497;48.322;16.204;2023-01-15T06:11:34;6.90;99.90
25640;DHT22;13497;48.322;16.204;2023-01-15T06:14:00;7.00;99.90
25640;DHT22;13497;48.322;16.204;2023-01-15T06:16:26;7.00;99.90
25640;DHT22;13497;48.322;16.204;2023-01-15T06:18:51;7.00;99.90
25640;DHT22;13497;48.322;16.204;2023-01-15T06:21:17;6.90;99.90
25640;DHT22;13497;48.322;16.204;2023-01-15T06:23:44;6.70;99.90
25640;DHT22;13497;48.322;16.204;2023-01-15T06:26:15;6.40;99.90
25640;DHT22;13497;48.322;16.204;2023-01-15T06:28:41;6.40;99.90
25640;DHT22;13497;48.322;16.204;2023-01-15T06:31:09;6.20;99.90
25640;DHT22;13497;48.322;16.204;2023-01-15T06:33:35;6.20;99.90
25640;DHT22;13497;48.322;16.204;2023-01-15T06:36:06;6.00;99.90
25640;DHT22;13497;48.322;16.204;2023-01-15T06:38:32;5.90;99.90
25640;DHT22;13497;48.322;16.204;2023-01-15T06:40:59;6.00;99.90
25640;DHT22;13497;48.322;16.204;2023-01-15T06:43:25;6.00;99.90
25640;DHT22;13497;48.322;16.204;2023-01-15T06:46:09;5.90;99.90
25640;DHT22;13497;48.322;16.204;2023-01-15T06:48:53;5.80;99.90
25640;DHT22;13497;48.322;16.204;2023-01-15T06:51:19;5.80;99.90
25640;DHT22;13497;48.322;16.204;2023-01-15T06:53:46;5.80;99.90
25640;DHT22;13497;48.322;16.204;2023-01-15T06:56:13;5.70;99.90
25640;DHT22;13497;48.322;16.204;2023-01-15T06:58:43;5.80;99.90
25640;DHT22;13497;48.322;16.204;2023-01-15T07:01:13;5.90;99.90
25640;DHT22;13497;48.322;16.204;2023-01-15T07:03:40;5.90;99.90
25640;DHT22;13497;48.322;16.204;2023-01-15T07:06:10;6.00;99.90
25640;DHT22;13497;48.322;16.204;2023-01-15T07:08:37;6.00;99.90
25640;DHT22;13497;48.322;16.204;2023-01-15T07:11:07;5.90;99.90
25640;DHT22;13497;48.322;16.204;2023-01-15T07:13:34;5.80;99.90
25640;DHT22;13497;48.322;16.204;2023-01-15T07:16:02;5.70;99.90
25640;DHT22;13497;48.322;16.204;2023-01-15T07:18:29;5.60;99.90
25640;DHT22;13497;48.322;16.204;2023-01-15T07:20:56;5.60;99.90
25640;DHT22;13497;48.322;16.204;2023-01-15T07:23:23;5.70;99.90
25640;DHT22;13497;48.322;16.204;2023-01-15T07:25:50;5.80;99.90
25640;DHT22;13497;48.322;16.204;2023-01-15T07:28:16;5.70;99.90
25640;DHT22;13497;48.322;16.204;2023-01-15T07:30:42;5.80;99.90
25640;DHT22;13497;48.322;16.204;2023-01-15T07:33:07;5.80;99.90
25640;DHT22;13497;48.322;16.204;2023-01-15T07:35:34;5.70;99.90
25640;DHT22;13497;48.322;16.204;2023-01-15T07:38:01;5.60;99.90
25640;DHT22;13497;48.322;16.204;2023-01-15T07:40:27;5.70;99.90
25640;DHT22;13497;48.322;16.204;2023-01-15T07:42:53;5.70;99.90
25640;DHT22;13497;48.322;16.204;2023-01-15T07:45:41;5.60;99.90
25640;DHT22;13497;48.322;16.204;2023-01-15T07:48:26;5.50;99.90
25640;DHT22;13497;48.322;16.204;2023-01-15T07:51:10;5.40;99.90
25640;DHT22;13497;48.322;16.204;2023-01-15T07:53:36;5.30;99.90
25640;DHT22;13497;48.322;16.204;2023-01-15T07:56:02;5.10;99.90
25640;DHT22;13497;48.322;16.204;2023-01-15T07:58:27;4.90;99.90
25640;DHT22;13497;48.322;16.204;2023-01-15T08:00:53;4.90;99.90
25640;DHT22;13497;48.322;16.204;2023-01-15T08:03:19;4.90;99.90
25640;DHT22;13497;48.322;16.204;2023-01-15T08:05:44;4.90;99.90
25640;DHT22;13497;48.322;16.204;2023-01-15T08:08:17;4.90;99.90
25640;DHT22;13497;48.322;16.204;2023-01-15T08:10:43;5.00;99.90
25640;DHT22;13497;48.322;16.204;2023-01-15T08:13:29;5.10;99.90
25640;DHT22;13497;48.322;16.204;2023-01-15T08:16:13;5.10;99.90
25640;DHT22;13497;48.322;16.204;2023-01-15T08:18:39;5.00;99.90
25640;DHT22;13497;48.322;16.204;2023-01-15T08:21:05;5.10;99.90
25640;DHT22;13497;48.322;16.204;2023-01-15T08:23:31;5.10;99.90
25640;DHT22;13497;48.322;16.204;2023-01-15T08:26:00;5.20;99.90
25640;DHT22;13497;48.322;16.204;2023-01-15T08:28:26;5.20;99.90
25640;DHT22;13497;48.322;16.204;2023-01-15T08:30:52;5.40;99.90
25640;DHT22;13497;48.322;16.204;2023-01-15T08:33:18;5.50;99.90
25640;DHT22;13497;48.322;16.204;2023-01-15T08:35:44;5.60;99.90
25640;DHT22;13497;48.322;16.204;2023-01-15T08:38:09;5.60;99.90
25640;DHT22;13497;48.322;16.204;2023-01-15T08:40:35;5.70;99.90
25640;DHT22;13497;48.322;16.204;2023-01-15T08:43:21;5.90;99.90
25640;DHT22;13497;48.322;16.204;2023-01-15T08:45:47;6.20;99.90
25640;DHT22;13497;48.322;16.204;2023-01-15T08:48:13;6.40;99.90
25640;DHT22;13497;48.322;16.204;2023-01-15T08:50:39;6.40;99.90
25640;DHT22;13497;48.322;16.204;2023-01-15T08:53:04;6.50;99.90
25640;DHT22;13497;48.322;16.204;2023-01-15T08:55:30;6.60;99.90
25640;DHT22;13497;48.322;16.204;2023-01-15T08:57:57;6.70;99.90
25640;DHT22;13497;48.322;16.204;2023-01-15T09:00:23;6.50;99.90
25640;DHT22;13497;48.322;16.204;2023-01-15T09:02:49;6.50;99.90
25640;DHT22;13497;48.322;16.204;2023-01-15T09:05:15;6.30;99.90
25640;DHT22;13497;48.322;16.204;2023-01-15T09:07:40;6.30;99.90
25640;DHT22;13497;48.322;16.204;2023-01-15T09:10:06;6.40;99.90
25640;DHT22;13497;48.322;16.204;2023-01-15T09:12:32;6.50;99.90
25640;DHT22;13497;48.322;16.204;2023-01-15T09:14:57;6.60;99.90
25640;DHT22;13497;48.322;16.204;2023-01-15T09:17:23;6.60;99.90
25640;DHT22;13497;48.322;16.204;2023-01-15T09:19:49;6.70;99.90
25640;DHT22;13497;48.322;16.204;2023-01-15T09:22:15;6.60;99.90
25640;DHT22;13497;48.322;16.204;2023-01-15T09:24:40;6.70;99.90
25640;DHT22;13497;48.322;16.204;2023-01-15T09:27:06;6.70;99.90
25640;DHT22;13497;48.322;16.204;2023-01-15T09:29:31;6.70;99.90
25640;DHT22;13497;48.322;16.204;2023-01-15T09:31:57;6.70;99.90
25640;DHT22;13497;48.322;16.204;2023-01-15T09:34:23;6.80;99.90
25640;DHT22;13497;48.322;16.204;2023-01-15T09:36:48;6.90;99.90
25640;DHT22;13497;48.322;16.204;2023-01-15T09:39:15;6.90;99.90
25640;DHT22;13497;48.322;16.204;2023-01-15T09:41:54;6.90;99.90
25640;DHT22;13497;48.322;16.204;2023-01-15T09:47:33;6.90;99.90
25640;DHT22;13497;48.322;16.204;2023-01-15T09:55:24;6.70;99.90
25640;DHT22;13497;48.322;16.204;2023-01-15T09:57:53;6.70;99.90
25640;DHT22;13497;48.322;16.204;2023-01-15T10:00:21;6.60;99.90
25640;DHT22;13497;48.322;16.204;2023-01-15T10:05:22;6.60;99.90
25640;DHT22;13497;48.322;16.204;2023-01-15T10:08:01;6.70;99.90
25640;DHT22;13497;48.322;16.204;2023-01-15T10:10:32;6.70;99.90
25640;DHT22;13497;48.322;16.204;2023-01-15T10:13:07;6.80;99.90
25640;DHT22;13497;48.322;16.204;2023-01-15T10:15:44;7.00;99.90
25640;DHT22;13497;48.322;16.204;2023-01-15T10:18:18;6.90;99.90
25640;DHT22;13497;48.322;16.204;2023-01-15T10:20:53;6.80;99.90
25640;DHT22;13497;48.322;16.204;2023-01-15T10:23:33;6.80;99.90
25640;DHT22;13497;48.322;16.204;2023-01-15T10:28:51;6.50;99.90
25640;DHT22;13497;48.322;16.204;2023-01-15T10:31:19;6.50;99.90
25640;DHT22;13497;48.322;16.204;2023-01-15T10:36:36;6.40;99.90
25640;DHT22;13497;48.322;16.204;2023-01-15T10:42:47;6.40;99.90
25640;DHT22;13497;48.322;16.204;2023-01-15T10:45:17;6.30;99.90
25640;DHT22;13497;48.322;16.204;2023-01-15T10:47:47;6.30;99.90
25640;DHT22;13497;48.322;16.204;2023-01-15T10:50:18;6.20;99.90
25640;DHT22;13497;48.322;16.204;2023-01-15T10:52:53;6.30;99.90
25640;DHT22;13497;48.322;16.204;2023-01-15T10:55:25;6.30;99.90
25640;DHT22;13497;48.322;16.204;2023-01-15T11:00:20;6.10;99.90
25640;DHT22;13497;48.322;16.204;2023-01-15T11:02:58;6.10;99.90
25640;DHT22;13497;48.322;16.204;2023-01-15T11:05:25;6.00;99.90
25640;DHT22;13497;48.322;16.204;2023-01-15T11:07:52;6.00;99.90
25640;DHT22;13497;48.322;16.204;2023-01-15T11:10:20;5.90;99.90
25640;DHT22;13497;48.322;16.204;2023-01-15T11:16:00;5.90;99.90
25640;DHT22;13497;48.322;16.204;2023-01-15T11:18:45;5.90;99.90
25640;DHT22;13497;48.322;16.204;2023-01-15T11:21:30;5.90;99.90
25640;DHT22;13497;48.322;16.204;2023-01-15T11:23:57;5.90;99.90
25640;DHT22;13497;48.322;16.204;2023-01-15T11:26:29;5.80;99.90
25640;DHT22;13497;48.322;16.204;2023-01-15T11:28:56;5.70;99.90
25640;DHT22;13497;48.322;16.204;2023-01-15T11:31:35;5.70;99.90
25640;DHT22;13497;48.322;16.204;2023-01-15T11:34:03;5.70;99.90
25640;DHT22;13497;48.322;16.204;2023-01-15T11:36:30;5.60;99.90
25640;DHT22;13497;48.322;16.204;2023-01-15T11:38:57;5.60;99.90
25640;DHT22;13497;48.322;16.204;2023-01-15T11:41:30;5.70;99.90
25640;DHT22;13497;48.322;16.204;2023-01-15T11:44:16;5.80;99.90
25640;DHT22;13497;48.322;16.204;2023-01-15T11:47:01;5.70;99.90
25640;DHT22;13497;48.322;16.204;2023-01-15T11:49:50;5.60;99.90
25640;DHT22;13497;48.322;16.204;2023-01-15T11:52:37;5.70;99.90
25640;DHT22;13497;48.322;16.204;2023-01-15T11:55:10;5.80;99.90
25640;DHT22;13497;48.322;16.204;2023-01-15T11:57:37;5.90;99.90
25640;DHT22;13497;48.322;16.204;2023-01-15T12:00:03;6.00;99.90
25640;DHT22;13497;48.322;16.204;2023-01-15T12:02:37;6.00;99.90
25640;DHT22;13497;48.322;16.204;2023-01-15T12:05:16;6.10;99.90
25640;DHT22;13497;48.322;16.204;2023-01-15T12:07:42;6.10;99.90
25640;DHT22;13497;48.322;16.204;2023-01-15T12:10:15;6.00;99.90
25640;DHT22;13497;48.322;16.204;2023-01-15T12:16:19;5.80;99.90
25640;DHT22;13497;48.322;16.204;2023-01-15T12:29:59;5.80;99.90
25640;DHT22;13497;48.322;16.204;2023-01-15T12:32:37;5.80;99.90
25640;DHT22;13497;48.322;16.204;2023-01-15T12:35:31;5.80;99.90
25640;DHT22;13497;48.322;16.204;2023-01-15T12:38:04;5.80;99.90
25640;DHT22;13497;48.322;16.204;2023-01-15T12:43:16;6.10;99.90
25640;DHT22;13497;48.322;16.204;2023-01-15T12:46:06;6.20;99.90
25640;DHT22;13497;48.322;16.204;2023-01-15T12:48:42;6.40;99.90
25640;DHT22;13497;48.322;16.204;2023-01-15T12:51:15;6.40;99.90
25640;DHT22;13497;48.322;16.204;2023-01-15T12:53:52;6.50;99.90
25640;DHT22;13497;48.322;16.204;2023-01-15T12:56:27;6.40;99.90
25640;DHT22;13497;48.322;16.204;2023-01-15T12:59:09;6.40;99.90
25640;DHT22;13497;48.322;16.204;2023-01-15T13:04:19;6.00;99.90
25640;DHT22;13497;48.322;16.204;2023-01-15T13:06:52;6.00;99.90
25640;DHT22;13497;48.322;16.204;2023-01-15T13:09:35;5.90;99.90
25640;DHT22;13497;48.322;16.204;2023-01-15T13:12:06;5.90;99.90
25640;DHT22;13497;48.322;16.204;2023-01-15T13:14:34;5.90;99.90
25640;DHT22;13497;48.322;16.204;2023-01-15T13:22:46;5.80;99.90
25640;DHT22;13497;48.322;16.204;2023-01-15T13:31:49;5.70;99.90
25640;DHT22;13497;48.322;16.204;2023-01-15T13:34:23;5.80;99.90
25640;DHT22;13497;48.322;16.204;2023-01-15T13:36:53;5.80;99.90
25640;DHT22;13497;48.322;16.204;2023-01-15T13:39:24;5.80;99.90
25640;DHT22;13497;48.322;16.204;2023-01-15T13:41:53;5.80;99.90
25640;DHT22;13497;48.322;16.204;2023-01-15T13:44:45;5.70;99.90
25640;DHT22;13497;48.322;16.204;2023-01-15T13:47:16;5.80;99.90
25640;DHT22;13497;48.322;16.204;2023-01-15T13:49:52;5.80;99.90
25640;DHT22;13497;48.322;16.204;2023-01-15T13:52:31;5.90;99.90
25640;DHT22;13497;48.322;16.204;2023-01-15T13:55:23;5.90;99.90
25640;DHT22;13497;48.322;16.204;2023-01-15T13:57:45;5.90;99.90
25640;DHT22;13497;48.322;16.204;2023-01-15T14:00:35;5.90;99.90
25640;DHT22;13497;48.322;16.204;2023-01-15T14:03:22;5.90;99.90
25640;DHT22;13497;48.322;16.204;2023-01-15T14:06:05;5.90;99.90
25640;DHT22;13497;48.322;16.204;2023-01-15T14:08:42;5.80;99.90
25640;DHT22;13497;48.322;16.204;2023-01-15T14:22:48;6.00;99.90
25640;DHT22;13497;48.322;16.204;2023-01-15T14:35:47;6.20;99.90
25640;DHT22;13497;48.322;16.204;2023-01-15T14:38:16;6.30;99.90
25640;DHT22;13497;48.322;16.204;2023-01-15T14:40:57;6.40;99.90
25640;DHT22;13497;48.322;16.204;2023-01-15T14:43:32;6.40;99.90
25640;DHT22;13497;48.322;16.204;2023-01-15T14:46:20;6.60;99.90
25640;DHT22;13497;48.322;16.204;2023-01-15T14:48:48;6.70;99.90
25640;DHT22;13497;48.322;16.204;2023-01-15T14:51:17;6.80;99.90
25640;DHT22;13497;48.322;16.204;2023-01-15T14:58:55;6.70;99.90
25640;DHT22;13497;48.322;16.204;2023-01-15T15:01:42;6.70;99.90
25640;DHT22;13497;48.322;16.204;2023-01-15T15:12:14;6.90;99.90
25640;DHT22;13497;48.322;16.204;2023-01-15T15:14:48;6.90;99.90
25640;DHT22;13497;48.322;16.204;2023-01-15T15:17:27;6.90;99.90
25640;DHT22;13497;48.322;16.204;2023-01-15T15:20:02;6.90;99.90
25640;DHT22;13497;48.322;16.204;2023-01-15T15:22:32;6.80;99.90
25640;DHT22;13497;48.322;16.204;2023-01-15T15:25:00;6.80;99.90
25640;DHT22;13497;48.322;16.204;2023-01-15T15:27:32;6.80;99.90
25640;DHT22;13497;48.322;16.204;2023-01-15T15:30:06;6.80;99.90
25640;DHT22;13497;48.322;16.204;2023-01-15T15:32:32;6.80;99.90
25640;DHT22;13497;48.322;16.204;2023-01-15T15:35:05;6.80;99.90
25640;DHT22;13497;48.322;16.204;2023-01-15T15:37:43;6.70;99.90
25640;DHT22;13497;48.322;16.204;2023-01-15T15:40:19;6.70;99.90
25640;DHT22;13497;48.322;16.204;2023-01-15T15:45:55;6.80;99.90
25640;DHT22;13497;48.322;16.204;2023-01-15T15:48:41;6.80;99.90
25640;DHT22;13497;48.322;16.204;2023-01-15T15:51:29;6.90;99.90
25640;DHT22;13497;48.322;16.204;2023-01-15T15:56:43;7.00;99.90
25640;DHT22;13497;48.322;16.204;2023-01-15T15:59:24;7.00;99.90
25640;DHT22;13497;48.322;16.204;2023-01-15T16:01:52;7.00;99.90
25640;DHT22;13497;48.322;16.204;2023-01-15T16:04:19;7.00;99.90
25640;DHT22;13497;48.322;16.204;2023-01-15T16:06:45;7.10;99.90
25640;DHT22;13497;48.322;16.204;2023-01-15T16:09:11;7.10;99.90
25640;DHT22;13497;48.322;16.204;2023-01-15T16:11:38;7.10;99.90
25640;DHT22;13497;48.322;16.204;2023-01-15T16:14:06;7.10;99.90
25640;DHT22;13497;48.322;16.204;2023-01-15T16:16:34;7.10;99.90
25640;DHT22;13497;48.322;16.204;2023-01-15T16:19:01;7.10;99.90
25640;DHT22;13497;48.322;16.204;2023-01-15T16:21:31;7.10;99.90
25640;DHT22;13497;48.322;16.204;2023-01-15T16:24:00;7.10;99.90
25640;DHT22;13497;48.322;16.204;2023-01-15T16:26:36;7.10;99.90
25640;DHT22;13497;48.322;16.204;2023-01-15T16:29:04;7.10;99.90
25640;DHT22;13497;48.322;16.204;2023-01-15T16:31:35;7.10;99.90
25640;DHT22;13497;48.322;16.204;2023-01-15T16:34:02;7.10;99.90
25640;DHT22;13497;48.322;16.204;2023-01-15T16:36:40;7.10;99.90
25640;DHT22;13497;48.322;16.204;2023-01-15T16:39:06;7.00;99.90
25640;DHT22;13497;48.322;16.204;2023-01-15T16:41:41;7.00;99.90
25640;DHT22;13497;48.322;16.204;2023-01-15T16:47:00;6.90;99.90
25640;DHT22;13497;48.322;16.204;2023-01-15T16:49:31;6.90;99.90
25640;DHT22;13497;48.322;16.204;2023-01-15T16:51:59;6.90;99.90
25640;DHT22;13497;48.322;16.204;2023-01-15T16:57:01;6.90;99.90
25640;DHT22;13497;48.322;16.204;2023-01-15T17:02:05;6.90;99.90
25640;DHT22;13497;48.322;16.204;2023-01-15T17:04:37;6.90;99.90
25640;DHT22;13497;48.322;16.204;2023-01-15T17:09:53;6.90;99.90
25640;DHT22;13497;48.322;16.204;2023-01-15T17:15:06;7.00;99.90
25640;DHT22;13497;48.322;16.204;2023-01-15T17:17:51;6.90;99.90
25640;DHT22;13497;48.322;16.204;2023-01-15T17:20:18;7.00;99.90
25640;DHT22;13497;48.322;16.204;2023-01-15T17:22:46;7.00;99.90
25640;DHT22;13497;48.322;16.204;2023-01-15T17:25:28;7.00;99.90
25640;DHT22;13497;48.322;16.204;2023-01-15T17:27:57;7.00;99.90
25640;DHT22;13497;48.322;16.204;2023-01-15T17:30:24;6.90;99.90
25640;DHT22;13497;48.322;16.204;2023-01-15T17:32:56;6.90;99.90
25640;DHT22;13497;48.322;16.204;2023-01-15T17:35:23;6.90;99.90
25640;DHT22;13497;48.322;16.204;2023-01-15T17:37:49;6.90;99.90
25640;DHT22;13497;48.322;16.204;2023-01-15T17:40:14;6.90;99.90
25640;DHT22;13497;48.322;16.204;2023-01-15T17:42:40;6.80;99.90
25640;DHT22;13497;48.322;16.204;2023-01-15T17:45:07;6.80;99.90
25640;DHT22;13497;48.322;16.204;2023-01-15T17:47:38;6.80;99.90
25640;DHT22;13497;48.322;16.204;2023-01-15T17:50:04;6.80;99.90
25640;DHT22;13497;48.322;16.204;2023-01-15T17:52:29;6.80;99.90
25640;DHT22;13497;48.322;16.204;2023-01-15T17:54:55;6.80;99.90